Time;durP1;ratioP1;P1;durP2;ratioP2;P2;SDS_P1;SDS_P2;PMS_P1;PMS_P2;Temp;Humidity;BMP_temperature;BMP_pressure;BME280_temperature;BME280_humidity;BME280_pressure;Samples;Min_cycle;Max_cycle;Signal;HPM_P1;HPM_P2
2023/07/10 04:25:03;;;;;;;3.00;2.70;;;;;;;;;;5145274;23;20290;-70
2023/07/10 04:27:31;;;;;;;3.28;3.08;;;;;;;;;;4974997;28;20266;-71
2023/07/10 04:29:58;;;;;;;3.22;3.03;;;;;;;;;;4975180;28;20261;-71
2023/07/10 04:32:25;;;;;;;3.55;3.20;;;;;;;;;;4975012;28;20214;-70
2023/07/10 04:34:52;;;;;;;3.15;2.97;;;;;;;;;;4974749;28;20634;-70
2023/07/10 04:37:19;;;;;;;3.17;2.92;;;;;;;;;;4974980;28;20202;-70
2023/07/10 04:39:46;;;;;;;2.90;2.70;;;;;;;;;;4975183;28;20210;-71
2023/07/10 04:42:15;;;;;;;2.85;2.65;;;;;;;;;;4974709;28;20203;-71
2023/07/10 04:44:42;;;;;;;2.88;2.55;;;;;;;;;;4974867;28;20226;-71
2023/07/10 04:47:09;;;;;;;3.45;2.63;;;;;;;;;;4974951;28;20211;-70
2023/07/10 04:49:36;;;;;;;2.63;2.53;;;;;;;;;;4975109;28;20206;-69
2023/07/10 04:52:03;;;;;;;3.10;2.90;;;;;;;;;;4975810;28;20230;-68
2023/07/10 04:54:30;;;;;;;4.30;3.38;;;;;;;;;;4977789;28;20229;-69
2023/07/10 04:56:57;;;;;;;3.13;2.92;;;;;;;;;;4974913;28;20207;-69
2023/07/10 04:59:26;;;;;;;3.05;2.85;;;;;;;;;;4976607;28;20229;-70
2023/07/10 05:01:53;;;;;;;3.35;3.15;;;;;;;;;;4979102;28;20213;-69
2023/07/10 05:04:20;;;;;;;3.28;3.00;;;;;;;;;;4978704;28;20226;-69
2023/07/10 05:06:47;;;;;;;2.75;2.55;;;;;;;;;;4978518;28;20704;-72
2023/07/10 05:09:14;;;;;;;2.72;2.60;;;;;;;;;;4978931;28;20210;-72
2023/07/10 05:11:41;;;;;;;2.70;2.60;;;;;;;;;;4978793;28;20223;-72
2023/07/10 10:04:24;;;;;;;3.92;2.92;;;;;;;;;;5560919;23;20572;-70
2023/07/10 10:06:56;;;;;;;2.97;2.78;;;;;;;;;;4977524;28;20226;-69
2023/07/10 10:09:24;;;;;;;2.95;2.85;;;;;;;;;;4977357;28;20660;-69
2023/07/10 10:11:53;;;;;;;4.15;2.80;;;;;;;;;;4977775;28;20223;-69
2023/07/10 10:14:24;;;;;;;3.15;2.80;;;;;;;;;;4977504;28;20269;-69
2023/07/10 10:16:55;;;;;;;2.78;2.58;;;;;;;;;;4977580;28;20191;-69
2023/07/10 10:19:26;;;;;;;3.25;3.05;;;;;;;;;;4977555;28;20560;-69
2023/07/10 10:21:53;;;;;;;3.00;2.88;;;;;;;;;;4977121;28;20191;-69
2023/07/10 10:24:20;;;;;;;3.22;3.03;;;;;;;;;;4977204;28;20222;-69
2023/07/10 10:26:58;;;;;;;3.05;2.88;;;;;;;;;;4977598;28;20207;-69
2023/07/10 10:29:43;;;;;;;3.88;3.53;;;;;;;;;;4977345;28;20191;-69
2023/07/10 10:32:14;;;;;;;4.03;3.42;;;;;;;;;;4977023;28;20229;-69
2023/07/10 10:34:47;;;;;;;3.50;3.20;;;;;;;;;;4977877;28;20223;-70
2023/07/10 10:37:22;;;;;;;3.47;3.15;;;;;;;;;;4977149;28;20187;-70
2023/07/10 10:39:52;;;;;;;3.35;3.10;;;;;;;;;;4977091;28;20559;-70
2023/07/10 10:42:22;;;;;;;2.90;2.70;;;;;;;;;;4977247;28;20183;-71
2023/07/10 10:44:54;;;;;;;2.53;2.42;;;;;;;;;;4977387;28;20223;-69
2023/07/10 10:47:33;;;;;;;5.57;3.10;;;;;;;;;;4976996;28;20191;-69
2023/07/10 10:50:07;;;;;;;3.03;2.83;;;;;;;;;;4977524;28;20191;-69
2023/07/10 10:52:37;;;;;;;3.10;2.85;;;;;;;;;;4976940;28;20211;-69
2023/07/10 10:55:17;;;;;;;3.40;3.20;;;;;;;;;;4976948;28;20227;-69
2023/07/10 10:57:48;;;;;;;3.22;2.92;;;;;;;;;;4976258;28;20250;-69
2023/07/10 11:00:23;;;;;;;3.72;3.53;;;;;;;;;;4976351;28;20662;-69
2023/07/10 11:02:56;;;;;;;3.42;3.22;;;;;;;;;;4976826;28;20190;-69
2023/07/10 11:05:32;;;;;;;4.13;3.42;;;;;;;;;;4976806;28;20223;-69
2023/07/10 11:08:03;;;;;;;3.70;3.00;;;;;;;;;;4976423;28;20558;-69
2023/07/10 11:10:31;;;;;;;3.05;2.90;;;;;;;;;;4976694;28;20200;-69
2023/07/10 11:12:59;;;;;;;2.70;2.60;;;;;;;;;;4976511;28;20230;-69
2023/07/10 11:15:27;;;;;;;2.80;2.60;;;;;;;;;;4976390;28;20222;-69
2023/07/10 11:17:55;;;;;;;3.25;3.05;;;;;;;;;;4976524;28;20199;-69
2023/07/10 11:20:25;;;;;;;3.15;2.85;;;;;;;;;;4976285;28;20202;-69
2023/07/10 11:22:53;;;;;;;3.58;3.30;;;;;;;;;;4976425;28;20208;-69
2023/07/10 11:25:29;;;;;;;4.10;3.28;;;;;;;;;;4976110;28;20219;-69
2023/07/10 11:27:57;;;;;;;5.15;3.65;;;;;;;;;;4976257;28;20191;-69
2023/07/10 11:30:31;;;;;;;3.17;2.95;;;;;;;;;;4976139;28;20206;-69
2023/07/10 11:32:59;;;;;;;6.22;3.80;;;;;;;;;;4975993;28;20206;-69
2023/07/10 11:35:30;;;;;;;4.45;3.63;;;;;;;;;;4976043;28;20230;-69
2023/07/10 11:38:15;;;;;;;3.85;3.40;;;;;;;;;;4976205;28;20190;-69
2023/07/10 11:40:43;;;;;;;3.38;3.17;;;;;;;;;;4976287;28;20198;-69
2023/07/10 11:43:29;;;;;;;3.35;3.15;;;;;;;;;;4975851;28;20203;-69
2023/07/10 11:46:04;;;;;;;3.42;3.13;;;;;;;;;;4976039;28;20210;-69
2023/07/10 11:48:35;;;;;;;2.85;2.58;;;;;;;;;;4975812;28;20187;-69
2023/07/10 11:51:03;;;;;;;3.78;3.58;;;;;;;;;;4976124;28;20215;-68
2023/07/10 11:53:30;;;;;;;3.00;2.83;;;;;;;;;;4975570;28;20218;-68
2023/07/10 11:55:59;;;;;;;3.80;3.50;;;;;;;;;;4975429;28;20210;-68
2023/07/10 11:58:28;;;;;;;3.42;3.22;;;;;;;;;;4975519;28;20617;-69
2023/07/10 12:00:59;;;;;;;3.90;3.60;;;;;;;;;;4975253;28;20693;-69
2023/07/10 12:03:26;;;;;;;3.22;3.03;;;;;;;;;;4975575;28;20242;-69
2023/07/10 12:05:53;;;;;;;2.78;2.60;;;;;;;;;;4975227;28;20203;-69
2023/07/10 12:08:23;;;;;;;2.90;2.80;;;;;;;;;;4974535;28;20194;-69
2023/07/10 12:10:51;;;;;;;2.92;2.50;;;;;;;;;;4976186;28;20217;-69
2023/07/10 12:13:20;;;;;;;2.80;2.60;;;;;;;;;;4975611;28;20269;-69
2023/07/10 12:15:47;;;;;;;2.53;2.42;;;;;;;;;;4975314;28;20213;-69
2023/07/10 12:18:16;;;;;;;2.95;2.78;;;;;;;;;;4975226;28;20302;-69
2023/07/10 12:20:44;;;;;;;2.78;2.58;;;;;;;;;;4975240;28;20253;-69
2023/07/10 12:23:13;;;;;;;2.55;2.45;;;;;;;;;;4975409;28;20199;-68
2023/07/10 12:25:47;;;;;;;2.63;2.53;;;;;;;;;;4975447;28;20226;-68
2023/07/10 12:28:15;;;;;;;2.60;2.50;;;;;;;;;;4975342;28;20195;-68
2023/07/10 12:30:42;;;;;;;2.13;2.03;;;;;;;;;;4975461;28;20250;-68
2023/07/10 12:33:29;;;;;;;2.35;2.25;;;;;;;;;;4975777;28;20269;-70
2023/07/10 12:35:56;;;;;;;3.00;2.80;;;;;;;;;;4992151;28;20218;-70
2023/07/10 12:38:24;;;;;;;2.53;2.42;;;;;;;;;;4977052;28;20210;-70
2023/07/10 12:40:52;;;;;;;2.67;2.47;;;;;;;;;;4989765;28;20209;-70
2023/07/10 12:43:22;;;;;;;2.75;2.58;;;;;;;;;;4993000;28;20215;-71
2023/07/10 12:45:56;;;;;;;2.58;2.50;;;;;;;;;;4992446;28;20218;-71
2023/07/10 12:48:25;;;;;;;2.97;2.70;;;;;;;;;;4980805;28;20272;-69
2023/07/10 12:50:53;;;;;;;2.55;2.45;;;;;;;;;;4975360;28;20207;-69
2023/07/10 12:53:21;;;;;;;2.70;2.50;;;;;;;;;;4974687;28;20270;-69
2023/07/10 12:55:49;;;;;;;3.13;2.92;;;;;;;;;;4975006;28;20207;-69
2023/07/10 12:58:18;;;;;;;2.78;2.63;;;;;;;;;;4974905;28;20206;-69
2023/07/10 13:00:50;;;;;;;3.83;3.40;;;;;;;;;;4974753;28;20199;-69
2023/07/10 13:03:21;;;;;;;6.07;3.38;;;;;;;;;;4974742;28;20210;-69
2023/07/10 13:05:52;;;;;;;4.20;3.35;;;;;;;;;;4974561;28;20203;-69
2023/07/10 13:08:19;;;;;;;3.97;3.55;;;;;;;;;;4974345;28;20643;-69
2023/07/10 13:10:46;;;;;;;3.47;3.28;;;;;;;;;;4974860;28;20202;-69
2023/07/10 13:13:15;;;;;;;3.28;3.17;;;;;;;;;;4974464;28;20233;-70
2023/07/10 13:15:44;;;;;;;3.10;2.90;;;;;;;;;;4974644;28;20273;-70
2023/07/10 13:18:17;;;;;;;3.15;2.95;;;;;;;;;;4975513;28;20575;-70
2023/07/10 13:20:44;;;;;;;3.72;3.33;;;;;;;;;;4977233;28;20194;-70
2023/07/10 13:23:11;;;;;;;3.10;2.90;;;;;;;;;;4978577;28;20194;-70
2023/07/10 13:25:38;;;;;;;3.25;2.95;;;;;;;;;;4978349;28;20234;-69
2023/07/10 13:28:16;;;;;;;5.00;3.15;;;;;;;;;;4978338;28;20602;-70
2023/07/10 13:30:45;;;;;;;3.47;3.25;;;;;;;;;;4978136;28;20191;-70
2023/07/10 13:33:16;;;;;;;3.40;3.10;;;;;;;;;;4978316;28;20207;-70
2023/07/10 13:35:43;;;;;;;3.30;3.08;;;;;;;;;;4977787;28;20629;-70
2023/07/10 13:38:11;;;;;;;3.00;2.80;;;;;;;;;;4977905;28;20202;-70
2023/07/10 13:40:38;;;;;;;3.08;2.88;;;;;;;;;;4978291;28;20202;-70
2023/07/10 13:43:10;;;;;;;3.08;2.88;;;;;;;;;;4978109;28;20206;-68
2023/07/10 13:45:37;;;;;;;3.30;3.13;;;;;;;;;;4960872;28;20234;-69
2023/07/10 13:48:10;;;;;;;3.22;3.00;;;;;;;;;;4978008;28;20206;-69
2023/07/10 13:50:37;;;;;;;3.22;3.03;;;;;;;;;;4977684;28;20658;-69
2023/07/10 13:53:04;;;;;;;3.53;3.17;;;;;;;;;;4978049;28;20723;-69
2023/07/10 13:55:31;;;;;;;3.72;3.42;;;;;;;;;;4977939;28;20230;-69
2023/07/10 13:57:58;;;;;;;4.00;3.60;;;;;;;;;;4977878;28;20207;-70
2023/07/10 14:00:25;;;;;;;3.70;3.40;;;;;;;;;;4977961;28;20214;-69
2023/07/10 14:02:55;;;;;;;3.50;3.13;;;;;;;;;;4977586;28;20581;-70
2023/07/10 14:05:23;;;;;;;3.22;3.03;;;;;;;;;;4977779;28;20227;-69
2023/07/10 14:07:50;;;;;;;3.22;2.97;;;;;;;;;;4977275;28;20589;-69
2023/07/10 14:10:18;;;;;;;3.42;3.22;;;;;;;;;;4977372;28;20690;-70
2023/07/10 14:12:45;;;;;;;3.83;3.33;;;;;;;;;;4977212;28;20628;-70
2023/07/10 14:15:14;;;;;;;3.65;3.38;;;;;;;;;;4977187;28;20710;-70
2023/07/10 14:17:42;;;;;;;3.53;3.33;;;;;;;;;;4977536;28;20567;-69
2023/07/10 14:20:11;;;;;;;3.20;3.00;;;;;;;;;;4977512;28;20249;-69
2023/07/10 14:22:42;;;;;;;3.60;3.40;;;;;;;;;;4977424;28;20290;-69
2023/07/10 14:25:09;;;;;;;2.83;2.72;;;;;;;;;;4977326;28;20226;-69
2023/07/10 14:27:36;;;;;;;3.00;2.80;;;;;;;;;;4977187;28;20203;-69
2023/07/10 14:30:03;;;;;;;2.78;2.67;;;;;;;;;;4977570;28;20203;-69
2023/07/10 14:32:31;;;;;;;2.63;2.53;;;;;;;;;;4976539;28;20732;-69
2023/07/10 14:34:58;;;;;;;3.30;2.78;;;;;;;;;;4977352;28;20227;-69
2023/07/10 14:37:27;;;;;;;3.78;3.47;;;;;;;;;;4977335;28;20203;-69
2023/07/10 14:39:56;;;;;;;3.70;3.50;;;;;;;;;;4977267;28;20214;-69
2023/07/10 14:42:24;;;;;;;3.10;2.90;;;;;;;;;;4977412;28;20191;-70
2023/07/10 14:44:51;;;;;;;2.97;2.88;;;;;;;;;;4977597;28;20218;-70
2023/07/10 14:47:27;;;;;;;3.55;3.35;;;;;;;;;;4977429;28;20213;-70
2023/07/10 14:49:54;;;;;;;3.17;2.97;;;;;;;;;;4977426;28;20194;-70
2023/07/10 14:52:22;;;;;;;3.03;2.92;;;;;;;;;;4977958;28;20573;-69
2023/07/10 14:54:51;;;;;;;3.03;2.83;;;;;;;;;;4977388;28;20237;-70
2023/07/10 14:57:21;;;;;;;2.58;2.47;;;;;;;;;;4977199;28;20227;-70
2023/07/10 14:59:48;;;;;;;3.03;2.70;;;;;;;;;;4977329;28;20192;-70
2023/07/10 15:02:19;;;;;;;2.88;2.70;;;;;;;;;;4977417;28;20207;-70
2023/07/10 15:04:46;;;;;;;2.85;2.75;;;;;;;;;;4977050;28;20561;-70
2023/07/10 15:07:14;;;;;;;2.85;2.65;;;;;;;;;;4976542;28;20253;-70
2023/07/10 15:09:42;;;;;;;3.50;3.17;;;;;;;;;;4976439;28;20663;-70
2023/07/10 15:12:11;;;;;;;3.45;3.22;;;;;;;;;;4976589;28;20338;-70
2023/07/10 15:14:40;;;;;;;3.13;2.97;;;;;;;;;;4976397;28;20238;-70
2023/07/10 15:17:10;;;;;;;3.15;3.00;;;;;;;;;;4976127;28;20690;-68
2023/07/10 15:19:37;;;;;;;3.10;2.88;;;;;;;;;;4976338;28;20238;-69
2023/07/10 15:22:05;;;;;;;2.95;2.80;;;;;;;;;;4976369;28;20203;-69
2023/07/10 15:24:34;;;;;;;3.58;3.20;;;;;;;;;;4976214;28;20235;-70
2023/07/10 15:27:02;;;;;;;2.80;2.70;;;;;;;;;;4976256;28;20183;-69
2023/07/10 15:29:29;;;;;;;3.05;2.85;;;;;;;;;;4976172;28;20212;-70
2023/07/10 15:32:02;;;;;;;2.97;2.88;;;;;;;;;;4976378;28;20226;-70
2023/07/10 15:34:29;;;;;;;3.53;2.88;;;;;;;;;;4975941;28;20253;-70
2023/07/10 15:36:56;;;;;;;3.55;3.03;;;;;;;;;;4975880;28;20209;-70
2023/07/10 15:39:23;;;;;;;3.35;3.15;;;;;;;;;;4976241;28;20210;-70
2023/07/10 15:41:50;;;;;;;3.47;2.97;;;;;;;;;;4976870;28;20213;-69
2023/07/10 15:44:17;;;;;;;3.38;3.08;;;;;;;;;;4977067;28;20226;-69
2023/07/10 15:46:44;;;;;;;3.85;3.50;;;;;;;;;;4977155;28;20198;-69
2023/07/10 15:49:19;;;;;;;4.20;2.85;;;;;;;;;;4976716;28;20246;-69
2023/07/10 15:51:46;;;;;;;3.20;3.00;;;;;;;;;;4975977;28;20194;-70
2023/07/10 15:54:13;;;;;;;2.88;2.67;;;;;;;;;;4975295;28;20337;-69
2023/07/10 15:56:41;;;;;;;2.83;2.72;;;;;;;;;;4975664;28;20210;-69
2023/07/10 15:59:12;;;;;;;3.10;2.90;;;;;;;;;;4975751;28;20203;-69
2023/07/10 16:01:39;;;;;;;3.90;3.60;;;;;;;;;;4975662;28;20190;-70
2023/07/10 16:04:06;;;;;;;3.22;3.03;;;;;;;;;;4975593;28;20230;-70
2023/07/10 16:06:59;;;;;;;3.67;3.47;;;;;;;;;;4975472;28;20622;-70
2023/07/10 16:09:33;;;;;;;3.88;3.05;;;;;;;;;;4975809;28;20290;-71
2023/07/10 16:12:10;;;;;;;4.28;3.30;;;;;;;;;;4975757;28;20191;-71
2023/07/10 16:14:39;;;;;;;3.50;3.30;;;;;;;;;;4975878;28;20265;-71
2023/07/10 16:17:19;;;;;;;3.58;3.28;;;;;;;;;;4976518;28;20235;-70
2023/07/10 16:19:49;;;;;;;3.22;3.03;;;;;;;;;;4974942;28;20289;-69
2023/07/10 16:22:32;;;;;;;2.92;2.80;;;;;;;;;;4976451;28;20195;-70
2023/07/10 16:25:16;;;;;;;3.50;3.20;;;;;;;;;;4975330;28;20226;-70
2023/07/10 16:27:44;;;;;;;3.42;3.22;;;;;;;;;;4974871;28;20187;-70
2023/07/10 16:30:18;;;;;;;3.03;2.85;;;;;;;;;;4975039;28;20725;-70
2023/07/10 16:32:53;;;;;;;3.20;3.10;;;;;;;;;;4974832;28;20281;-70
2023/07/10 16:35:25;;;;;;;3.25;2.95;;;;;;;;;;4974999;28;20309;-70
2023/07/10 16:37:55;;;;;;;2.90;2.70;;;;;;;;;;4974887;28;20214;-70
2023/07/10 16:40:27;;;;;;;2.83;2.67;;;;;;;;;;4974687;28;20210;-70
2023/07/10 16:43:03;;;;;;;3.53;3.33;;;;;;;;;;4975100;28;20234;-70
2023/07/10 16:45:31;;;;;;;3.13;2.88;;;;;;;;;;4974564;28;20230;-70
2023/07/10 16:48:07;;;;;;;2.78;2.58;;;;;;;;;;4974934;28;20194;-70
2023/07/10 16:50:43;;;;;;;3.05;2.92;;;;;;;;;;4974608;28;20187;-70
2023/07/10 16:53:36;;;;;;;2.50;2.40;;;;;;;;;;4974455;28;20199;-70
2023/07/10 16:56:06;;;;;;;2.95;2.85;;;;;;;;;;4972049;28;20211;-69
2023/07/10 16:58:34;;;;;;;2.92;2.83;;;;;;;;;;4974782;28;20210;-70
2023/07/10 17:01:01;;;;;;;2.92;2.72;;;;;;;;;;4974719;28;20295;-70
2023/07/10 17:03:30;;;;;;;2.83;2.72;;;;;;;;;;4974360;28;20210;-70
2023/07/10 17:05:57;;;;;;;3.17;3.00;;;;;;;;;;4974409;28;20207;-70
2023/07/10 17:08:25;;;;;;;2.13;2.10;;;;;;;;;;4974744;28;20194;-70
2023/07/10 17:10:53;;;;;;;2.33;2.22;;;;;;;;;;4974944;28;20187;-70
2023/07/10 17:13:22;;;;;;;2.58;2.47;;;;;;;;;;4974076;28;20574;-70
2023/07/10 17:15:52;;;;;;;2.83;2.60;;;;;;;;;;4974574;28;20207;-70
2023/07/10 17:18:21;;;;;;;2.60;2.45;;;;;;;;;;4974563;28;20198;-70
2023/07/10 17:20:49;;;;;;;2.50;2.40;;;;;;;;;;4974217;28;20210;-70
2023/07/10 17:23:17;;;;;;;2.50;2.40;;;;;;;;;;4974426;28;20549;-69
2023/07/10 17:25:45;;;;;;;2.35;2.25;;;;;;;;;;4974593;28;20297;-70
2023/07/10 17:28:15;;;;;;;2.97;2.88;;;;;;;;;;4974668;28;20202;-70
2023/07/10 17:30:44;;;;;;;2.70;2.50;;;;;;;;;;4974703;28;20210;-69
2023/07/10 17:33:27;;;;;;;2.78;2.63;;;;;;;;;;4974050;28;20689;-69
2023/07/10 17:35:54;;;;;;;2.70;2.60;;;;;;;;;;4974453;28;20191;-70
2023/07/10 17:38:21;;;;;;;3.10;2.95;;;;;;;;;;4975261;28;20191;-71
2023/07/10 17:40:49;;;;;;;2.83;2.72;;;;;;;;;;4974600;28;20194;-70
2023/07/10 17:43:16;;;;;;;2.92;2.72;;;;;;;;;;4974328;28;20203;-70
2023/07/10 17:45:44;;;;;;;2.60;2.50;;;;;;;;;;4974542;28;20187;-70
2023/07/10 17:48:16;;;;;;;2.78;2.67;;;;;;;;;;4974371;28;20207;-69
2023/07/10 17:50:43;;;;;;;2.58;2.38;;;;;;;;;;4974640;28;20194;-69
2023/07/10 17:53:13;;;;;;;3.08;2.88;;;;;;;;;;4974559;28;20211;-69
2023/07/10 17:55:42;;;;;;;2.60;2.50;;;;;;;;;;4973886;28;20242;-69
2023/07/10 17:58:13;;;;;;;2.53;2.42;;;;;;;;;;4974307;28;20195;-68
2023/07/10 18:00:40;;;;;;;2.88;2.67;;;;;;;;;;4974357;28;20224;-68
2023/07/10 18:03:12;;;;;;;2.50;2.40;;;;;;;;;;4974281;28;20203;-67
2023/07/10 18:05:39;;;;;;;2.53;2.42;;;;;;;;;;4974118;28;20226;-67
2023/07/10 18:08:13;;;;;;;2.95;2.65;;;;;;;;;;4976364;28;20217;-68
2023/07/10 18:10:40;;;;;;;2.35;2.25;;;;;;;;;;4977610;28;20199;-67
2023/07/10 18:13:09;;;;;;;2.00;1.90;;;;;;;;;;4978249;28;20322;-70
2023/07/10 18:15:36;;;;;;;2.50;2.22;;;;;;;;;;4977331;28;20222;-69
2023/07/10 18:18:07;;;;;;;2.63;2.47;;;;;;;;;;4977583;28;20213;-70
2023/07/10 18:20:35;;;;;;;2.05;2.05;;;;;;;;;;4977072;28;20661;-69
2023/07/10 18:23:02;;;;;;;2.20;2.10;;;;;;;;;;4977465;28;20199;-69
2023/07/10 18:25:30;;;;;;;2.35;2.20;;;;;;;;;;4977305;28;20219;-70
2023/07/10 18:27:57;;;;;;;2.42;2.30;;;;;;;;;;4977373;28;20234;-70
2023/07/10 18:30:24;;;;;;;2.08;2.08;;;;;;;;;;4977215;28;20547;-71
2023/07/10 18:32:51;;;;;;;2.42;2.33;;;;;;;;;;4977084;28;20210;-70
2023/07/10 18:35:19;;;;;;;1.95;1.85;;;;;;;;;;4976956;28;20222;-71
2023/07/10 18:37:49;;;;;;;2.50;2.40;;;;;;;;;;4977075;28;20230;-70
2023/07/10 18:40:16;;;;;;;2.70;2.60;;;;;;;;;;4977002;28;20206;-71
2023/07/10 18:42:43;;;;;;;2.45;2.35;;;;;;;;;;4977084;28;20203;-69
2023/07/10 18:45:17;;;;;;;2.55;2.45;;;;;;;;;;4976909;28;20241;-67
2023/07/10 18:47:44;;;;;;;2.60;2.50;;;;;;;;;;4976856;28;20198;-67
2023/07/10 18:50:14;;;;;;;2.40;2.30;;;;;;;;;;4976877;28;20215;-67
2023/07/10 18:52:42;;;;;;;2.60;2.40;;;;;;;;;;4976864;28;20191;-68
2023/07/10 18:55:15;;;;;;;2.50;2.40;;;;;;;;;;4976714;28;20301;-67
2023/07/10 18:57:42;;;;;;;2.25;2.15;;;;;;;;;;4976933;28;20191;-68
2023/07/10 19:00:17;;;;;;;2.65;2.55;;;;;;;;;;4976870;28;20206;-68
2023/07/10 19:02:44;;;;;;;2.80;2.65;;;;;;;;;;4976861;28;20209;-68
2023/07/10 19:05:11;;;;;;;2.80;2.70;;;;;;;;;;4976664;28;20226;-68
2023/07/10 19:07:38;;;;;;;3.20;3.00;;;;;;;;;;4976523;28;20234;-68
2023/07/10 19:10:06;;;;;;;3.20;3.08;;;;;;;;;;4976433;28;20194;-67
2023/07/10 19:12:34;;;;;;;2.63;2.53;;;;;;;;;;4976162;28;20570;-68
2023/07/10 19:15:01;;;;;;;2.55;2.45;;;;;;;;;;4976399;28;20222;-67
2023/07/10 19:17:28;;;;;;;3.20;3.00;;;;;;;;;;4976053;28;20198;-67
2023/07/10 19:19:55;;;;;;;2.40;2.30;;;;;;;;;;4976535;28;20213;-67
2023/07/10 19:22:22;;;;;;;2.60;2.50;;;;;;;;;;4976399;28;20203;-66
2023/07/10 19:24:49;;;;;;;2.67;2.58;;;;;;;;;;4976366;28;20246;-67
2023/07/10 19:27:16;;;;;;;3.42;3.22;;;;;;;;;;4975923;28;20643;-67
2023/07/10 19:29:45;;;;;;;2.75;2.65;;;;;;;;;;4976320;28;20202;-66
2023/07/10 19:32:17;;;;;;;3.08;2.88;;;;;;;;;;4976154;28;20236;-66
2023/07/10 19:34:44;;;;;;;3.08;2.88;;;;;;;;;;4976030;28;20231;-67
2023/07/10 19:37:12;;;;;;;3.00;2.80;;;;;;;;;;4976095;28;20207;-67
2023/07/10 19:39:39;;;;;;;2.80;2.70;;;;;;;;;;4976110;28;20209;-67
2023/07/10 19:42:06;;;;;;;2.75;2.65;;;;;;;;;;4975638;28;20670;-68
2023/07/10 19:44:48;;;;;;;2.47;2.35;;;;;;;;;;4975838;28;20245;-68
2023/07/10 19:47:16;;;;;;;2.80;2.70;;;;;;;;;;4975756;28;20205;-68
2023/07/10 19:49:43;;;;;;;2.90;2.80;;;;;;;;;;4975827;28;20210;-67
2023/07/10 19:52:14;;;;;;;2.60;2.47;;;;;;;;;;4975937;28;20210;-67
2023/07/10 19:54:41;;;;;;;2.60;2.50;;;;;;;;;;4975830;28;20233;-67
2023/07/10 19:57:16;;;;;;;2.97;2.78;;;;;;;;;;4975699;28;20207;-72
2023/07/10 19:59:43;;;;;;;3.05;2.85;;;;;;;;;;4975624;28;20194;-66
2023/07/10 20:02:14;;;;;;;3.00;2.80;;;;;;;;;;4976205;28;20207;-66
2023/07/10 20:04:41;;;;;;;2.50;2.40;;;;;;;;;;4975496;28;20222;-66
2023/07/10 20:07:08;;;;;;;3.42;3.22;;;;;;;;;;4975290;28;20673;-68
2023/07/10 20:09:35;;;;;;;2.90;2.70;;;;;;;;;;4975602;28;20207;-66
2023/07/10 20:12:03;;;;;;;3.00;2.80;;;;;;;;;;4975411;28;20548;-69
2023/07/10 20:14:30;;;;;;;3.22;2.97;;;;;;;;;;4975069;28;20705;-67
2023/07/10 20:16:58;;;;;;;3.28;2.97;;;;;;;;;;4975310;28;20210;-67
2023/07/10 20:19:27;;;;;;;3.20;3.00;;;;;;;;;;4975342;28;20203;-67
2023/07/10 20:21:54;;;;;;;3.42;3.22;;;;;;;;;;4975257;28;20209;-66
2023/07/10 20:24:21;;;;;;;2.80;2.70;;;;;;;;;;4974989;28;20227;-68
2023/07/10 20:26:49;;;;;;;2.90;2.80;;;;;;;;;;4975200;28;20199;-68
2023/07/10 20:29:18;;;;;;;3.60;3.40;;;;;;;;;;4974305;28;20202;-67
2023/07/10 20:31:45;;;;;;;3.15;2.88;;;;;;;;;;4975111;28;20205;-67
2023/07/10 20:34:12;;;;;;;3.70;3.50;;;;;;;;;;4974823;28;20253;-68
2023/07/10 20:36:41;;;;;;;3.30;3.10;;;;;;;;;;4975189;28;20235;-68
2023/07/10 20:39:11;;;;;;;3.25;3.08;;;;;;;;;;4975122;28;20610;-68
2023/07/10 20:41:39;;;;;;;3.15;2.95;;;;;;;;;;4975516;28;20214;-68
2023/07/10 20:44:11;;;;;;;3.90;3.65;;;;;;;;;;4974906;28;20230;-68
2023/07/10 20:46:38;;;;;;;3.30;3.10;;;;;;;;;;4974614;28;20592;-69
2023/07/10 20:49:06;;;;;;;3.20;3.10;;;;;;;;;;4974786;28;20666;-69
2023/07/10 20:51:34;;;;;;;3.08;2.88;;;;;;;;;;4974904;28;20210;-69
2023/07/10 20:54:02;;;;;;;2.72;2.63;;;;;;;;;;4974867;28;20297;-69
2023/07/10 20:56:30;;;;;;;2.92;2.78;;;;;;;;;;4975408;28;20229;-69
2023/07/10 20:58:59;;;;;;;3.25;3.03;;;;;;;;;;4974759;28;20211;-68
2023/07/10 21:01:27;;;;;;;3.72;3.53;;;;;;;;;;4974609;28;20674;-69
2023/07/10 21:03:54;;;;;;;3.20;3.00;;;;;;;;;;4974729;28;20250;-69
2023/07/10 21:06:24;;;;;;;3.08;2.97;;;;;;;;;;4974595;28;20405;-69
2023/07/10 21:08:52;;;;;;;3.22;3.03;;;;;;;;;;4974672;28;20590;-69
2023/07/10 21:11:22;;;;;;;3.00;2.90;;;;;;;;;;4974836;28;20209;-69
